BIAR

Details ICAO BIAR (AEY)
Name Akureyri
Region Iceland
Timezone Unknown (UTC+0.0)
Plans Departing 110
Arriving 126
Stats Elevation 5 ft / 2 m (AMSL)
Location 65.656574° -18.071975°
Runways 1
Magnetic Variation 12.177° W
Sunrise 2018-05-23 03:09:53 UTC / 2018-05-23 03:09:53 Local
Sunset 2018-05-23 23:11:04 UTC / 2018-05-23 23:11:04 Local
Advertisement - Login to hide

Runways

ID Width Length Bearing (true) Bearing (mag) Surface Threshold Offset Overrun Length
01 148 ft / 45 m 7,855 ft / 2,394 m 355.54° 7.72° Asphalt 0 ft / 0 m 0 ft / 0 m
19 148 ft / 45 m 7,855 ft / 2,394 m 175.54° 187.72° Asphalt 0 ft / 0 m 0 ft / 0 m

Approach Navaids

Runway Type Ident Frequency Range Bearing (true) Bearing (mag) Slope Elevation
01 Localiser IEY 111.90 MHz 18 nm / 33 km 24.00° 36.18° - 200 ft / 61 m (AMSL)
01 Glidescope IEY 111.90 MHz 10 nm / 19 km 358.14° 10.32° 5.00° 44 ft / 13 m (AMSL)

Map

Weather


0- 5 10 15 20 25 30 35+ Temperature / ° C

Clouds and Precipitation
Forecast for 2018-05-23 18:00 UTC. Updated 6 hours ago

Ground ~20,000 ft ~40,000 ft Winds

METAR

BIAR 232200Z 24004KT 9999 SCT067 10/M01 Q1017

TAF

TAF BIAR 231940Z 2321/2421 18008KT 9999 SCT060 TX09/2321Z TN04/2406Z BECMG 2406/2409 -RA BKN020 OVC030 TEMPO 2407/2418 8000 RADZ BR BKN013 OVC020 BECMG 2415/2418 29014KT -SHRA

Frequencies

Tower 118.20 MHz TWR
Approach 118.70 MHz RADAR
Warning: Do not use this data for real-world aviation or navigation. No guarantee of current accuracy is given.